sensor_id;sensor_type;location;lat;lon;timestamp;temperature;humidity
23685;DHT22;12020;51.384;6.908;2023-12-22T00:00:11;6.50;99.90
23685;DHT22;12020;51.384;6.908;2023-12-22T00:03:02;6.40;99.90
23685;DHT22;12020;51.384;6.908;2023-12-22T00:05:30;6.40;99.90
23685;DHT22;12020;51.384;6.908;2023-12-22T00:07:57;6.40;99.90
23685;DHT22;12020;51.384;6.908;2023-12-22T00:10:24;6.40;99.90
23685;DHT22;12020;51.384;6.908;2023-12-22T00:12:52;6.40;99.90
23685;DHT22;12020;51.384;6.908;2023-12-22T00:15:20;6.30;99.90
23685;DHT22;12020;51.384;6.908;2023-12-22T00:17:45;6.30;99.90
23685;DHT22;12020;51.384;6.908;2023-12-22T00:20:11;6.40;99.90
23685;DHT22;12020;51.384;6.908;2023-12-22T00:22:40;6.40;99.90
23685;DHT22;12020;51.384;6.908;2023-12-22T00:25:15;6.40;99.90
23685;DHT22;12020;51.384;6.908;2023-12-22T00:27:41;6.40;99.90
23685;DHT22;12020;51.384;6.908;2023-12-22T00:30:11;6.50;99.90
23685;DHT22;12020;51.384;6.908;2023-12-22T00:32:39;6.50;99.90
23685;DHT22;12020;51.384;6.908;2023-12-22T00:35:05;6.50;99.90
23685;DHT22;12020;51.384;6.908;2023-12-22T00:37:32;6.50;99.90
23685;DHT22;12020;51.384;6.908;2023-12-22T00:39:58;6.50;99.90
23685;DHT22;12020;51.384;6.908;2023-12-22T00:42:26;6.50;99.90
23685;DHT22;12020;51.384;6.908;2023-12-22T00:44:53;6.50;99.90
23685;DHT22;12020;51.384;6.908;2023-12-22T00:47:22;6.50;99.90
23685;DHT22;12020;51.384;6.908;2023-12-22T00:49:49;6.50;99.90
23685;DHT22;12020;51.384;6.908;2023-12-22T00:52:16;6.60;99.90
23685;DHT22;12020;51.384;6.908;2023-12-22T00:54:45;6.50;99.90
23685;DHT22;12020;51.384;6.908;2023-12-22T00:57:13;6.60;99.90
23685;DHT22;12020;51.384;6.908;2023-12-22T00:59:43;6.60;99.90
23685;DHT22;12020;51.384;6.908;2023-12-22T01:02:18;6.60;99.90
23685;DHT22;12020;51.384;6.908;2023-12-22T01:04:44;6.60;99.90
23685;DHT22;12020;51.384;6.908;2023-12-22T01:07:11;6.70;99.90
23685;DHT22;12020;51.384;6.908;2023-12-22T01:09:58;6.70;99.90
23685;DHT22;12020;51.384;6.908;2023-12-22T01:12:37;6.70;99.90
23685;DHT22;12020;51.384;6.908;2023-12-22T01:15:16;6.60;99.90
23685;DHT22;12020;51.384;6.908;2023-12-22T01:17:45;6.50;99.90
23685;DHT22;12020;51.384;6.908;2023-12-22T01:20:14;6.60;99.90
23685;DHT22;12020;51.384;6.908;2023-12-22T01:22:44;6.50;99.90
23685;DHT22;12020;51.384;6.908;2023-12-22T01:25:48;6.50;99.90
23685;DHT22;12020;51.384;6.908;2023-12-22T01:28:14;6.50;99.90
23685;DHT22;12020;51.384;6.908;2023-12-22T01:31:19;6.50;99.90
23685;DHT22;12020;51.384;6.908;2023-12-22T01:33:51;6.50;99.90
23685;DHT22;12020;51.384;6.908;2023-12-22T01:36:18;6.50;99.90
23685;DHT22;12020;51.384;6.908;2023-12-22T01:38:45;6.50;99.90
23685;DHT22;12020;51.384;6.908;2023-12-22T01:41:13;6.50;99.90
23685;DHT22;12020;51.384;6.908;2023-12-22T01:44:06;6.60;99.90
23685;DHT22;12020;51.384;6.908;2023-12-22T01:46:41;6.40;99.90
23685;DHT22;12020;51.384;6.908;2023-12-22T01:49:08;6.50;99.90
23685;DHT22;12020;51.384;6.908;2023-12-22T01:51:37;6.30;99.90
23685;DHT22;12020;51.384;6.908;2023-12-22T01:54:28;6.10;99.90
23685;DHT22;12020;51.384;6.908;2023-12-22T01:57:14;6.00;99.90
23685;DHT22;12020;51.384;6.908;2023-12-22T01:59:50;6.00;99.90
23685;DHT22;12020;51.384;6.908;2023-12-22T02:02:30;5.90;99.90
23685;DHT22;12020;51.384;6.908;2023-12-22T02:04:57;5.90;99.90
23685;DHT22;12020;51.384;6.908;2023-12-22T02:07:24;5.90;99.90
23685;DHT22;12020;51.384;6.908;2023-12-22T02:09:51;5.80;99.90
23685;DHT22;12020;51.384;6.908;2023-12-22T02:12:17;5.80;99.90
23685;DHT22;12020;51.384;6.908;2023-12-22T02:14:45;5.80;99.90
23685;DHT22;12020;51.384;6.908;2023-12-22T02:20:01;5.70;99.90
23685;DHT22;12020;51.384;6.908;2023-12-22T02:22:32;5.70;99.90
23685;DHT22;12020;51.384;6.908;2023-12-22T02:25:00;5.70;99.90
23685;DHT22;12020;51.384;6.908;2023-12-22T02:33:08;5.70;99.90
23685;DHT22;12020;51.384;6.908;2023-12-22T02:35:57;5.70;99.90
23685;DHT22;12020;51.384;6.908;2023-12-22T02:38:33;5.70;99.90
23685;DHT22;12020;51.384;6.908;2023-12-22T02:41:00;5.70;99.90
23685;DHT22;12020;51.384;6.908;2023-12-22T02:43:27;5.70;99.90
23685;DHT22;12020;51.384;6.908;2023-12-22T02:46:00;5.70;99.90
23685;DHT22;12020;51.384;6.908;2023-12-22T02:48:35;5.70;99.90
23685;DHT22;12020;51.384;6.908;2023-12-22T02:51:01;5.70;99.90
23685;DHT22;12020;51.384;6.908;2023-12-22T02:53:28;5.70;99.90
23685;DHT22;12020;51.384;6.908;2023-12-22T02:55:56;5.80;99.90
23685;DHT22;12020;51.384;6.908;2023-12-22T02:58:22;5.70;99.90
23685;DHT22;12020;51.384;6.908;2023-12-22T03:00:48;5.70;99.90
23685;DHT22;12020;51.384;6.908;2023-12-22T03:03:14;5.70;99.90
23685;DHT22;12020;51.384;6.908;2023-12-22T03:05:42;5.80;99.90
23685;DHT22;12020;51.384;6.908;2023-12-22T03:08:08;5.80;99.90
23685;DHT22;12020;51.384;6.908;2023-12-22T03:10:35;5.70;99.90
23685;DHT22;12020;51.384;6.908;2023-12-22T03:13:03;5.70;99.90
23685;DHT22;12020;51.384;6.908;2023-12-22T03:15:30;5.70;99.90
23685;DHT22;12020;51.384;6.908;2023-12-22T03:18:05;5.70;99.90
23685;DHT22;12020;51.384;6.908;2023-12-22T03:20:35;5.70;99.90
23685;DHT22;12020;51.384;6.908;2023-12-22T03:23:38;5.80;99.90
23685;DHT22;12020;51.384;6.908;2023-12-22T03:26:10;5.70;99.90
23685;DHT22;12020;51.384;6.908;2023-12-22T03:28:42;5.80;99.90
23685;DHT22;12020;51.384;6.908;2023-12-22T03:31:09;5.80;99.90
23685;DHT22;12020;51.384;6.908;2023-12-22T03:33:57;5.80;99.90
23685;DHT22;12020;51.384;6.908;2023-12-22T03:36:22;5.80;99.90
23685;DHT22;12020;51.384;6.908;2023-12-22T03:38:54;5.80;99.90
23685;DHT22;12020;51.384;6.908;2023-12-22T03:41:29;5.80;99.90
23685;DHT22;12020;51.384;6.908;2023-12-22T03:43:57;5.80;99.90
23685;DHT22;12020;51.384;6.908;2023-12-22T03:46:23;5.90;99.90
23685;DHT22;12020;51.384;6.908;2023-12-22T03:48:54;5.90;99.90
23685;DHT22;12020;51.384;6.908;2023-12-22T03:51:21;5.90;99.90
23685;DHT22;12020;51.384;6.908;2023-12-22T03:56:52;5.90;99.90
23685;DHT22;12020;51.384;6.908;2023-12-22T04:08:55;6.10;99.90
23685;DHT22;12020;51.384;6.908;2023-12-22T04:11:49;6.10;99.90
23685;DHT22;12020;51.384;6.908;2023-12-22T04:18:01;6.10;99.90
23685;DHT22;12020;51.384;6.908;2023-12-22T04:20:27;6.10;99.90
23685;DHT22;12020;51.384;6.908;2023-12-22T04:23:14;6.20;99.90
23685;DHT22;12020;51.384;6.908;2023-12-22T04:25:43;6.20;99.90
23685;DHT22;12020;51.384;6.908;2023-12-22T04:28:31;6.20;99.90
23685;DHT22;12020;51.384;6.908;2023-12-22T04:30:58;6.20;99.90
23685;DHT22;12020;51.384;6.908;2023-12-22T04:33:25;6.20;99.90
23685;DHT22;12020;51.384;6.908;2023-12-22T04:36:18;6.20;99.90
23685;DHT22;12020;51.384;6.908;2023-12-22T04:38:48;6.20;99.90
23685;DHT22;12020;51.384;6.908;2023-12-22T04:41:17;6.20;99.90
23685;DHT22;12020;51.384;6.908;2023-12-22T04:43:58;6.20;99.90
23685;DHT22;12020;51.384;6.908;2023-12-22T04:49:03;6.30;99.90
23685;DHT22;12020;51.384;6.908;2023-12-22T04:51:59;6.30;99.90
23685;DHT22;12020;51.384;6.908;2023-12-22T04:54:38;6.30;99.90
23685;DHT22;12020;51.384;6.908;2023-12-22T04:57:05;6.30;99.90
23685;DHT22;12020;51.384;6.908;2023-12-22T04:59:32;6.10;99.90
23685;DHT22;12020;51.384;6.908;2023-12-22T05:02:04;6.00;99.90
23685;DHT22;12020;51.384;6.908;2023-12-22T05:04:36;5.90;99.90
23685;DHT22;12020;51.384;6.908;2023-12-22T05:07:04;5.90;99.90
23685;DHT22;12020;51.384;6.908;2023-12-22T05:09:34;5.90;99.90
23685;DHT22;12020;51.384;6.908;2023-12-22T05:12:05;5.90;99.90
23685;DHT22;12020;51.384;6.908;2023-12-22T05:14:31;6.00;99.90
23685;DHT22;12020;51.384;6.908;2023-12-22T05:16:59;6.00;99.90
23685;DHT22;12020;51.384;6.908;2023-12-22T05:19:26;6.00;99.90
23685;DHT22;12020;51.384;6.908;2023-12-22T05:22:17;5.90;99.90
23685;DHT22;12020;51.384;6.908;2023-12-22T05:24:52;5.80;99.90
23685;DHT22;12020;51.384;6.908;2023-12-22T05:27:19;5.80;99.90
23685;DHT22;12020;51.384;6.908;2023-12-22T05:29:47;5.80;99.90
23685;DHT22;12020;51.384;6.908;2023-12-22T05:32:18;5.80;99.90
23685;DHT22;12020;51.384;6.908;2023-12-22T05:35:01;5.80;99.90
23685;DHT22;12020;51.384;6.908;2023-12-22T05:37:26;5.80;99.90
23685;DHT22;12020;51.384;6.908;2023-12-22T05:39:52;5.80;99.90
23685;DHT22;12020;51.384;6.908;2023-12-22T05:42:20;5.80;99.90
23685;DHT22;12020;51.384;6.908;2023-12-22T05:44:47;5.80;99.90
23685;DHT22;12020;51.384;6.908;2023-12-22T05:47:23;5.80;99.90
23685;DHT22;12020;51.384;6.908;2023-12-22T05:49:54;5.80;99.90
23685;DHT22;12020;51.384;6.908;2023-12-22T05:52:20;5.90;99.90
23685;DHT22;12020;51.384;6.908;2023-12-22T05:54:48;5.90;99.90
23685;DHT22;12020;51.384;6.908;2023-12-22T05:57:39;5.90;99.90
23685;DHT22;12020;51.384;6.908;2023-12-22T06:00:29;6.00;99.90
23685;DHT22;12020;51.384;6.908;2023-12-22T06:02:56;6.00;99.90
23685;DHT22;12020;51.384;6.908;2023-12-22T06:09:27;6.00;99.90
23685;DHT22;12020;51.384;6.908;2023-12-22T06:11:55;6.00;99.90
23685;DHT22;12020;51.384;6.908;2023-12-22T06:14:59;6.10;99.90
23685;DHT22;12020;51.384;6.908;2023-12-22T06:17:35;6.10;99.90
23685;DHT22;12020;51.384;6.908;2023-12-22T06:24:09;6.20;99.90
23685;DHT22;12020;51.384;6.908;2023-12-22T06:26:35;6.20;99.90
23685;DHT22;12020;51.384;6.908;2023-12-22T06:29:01;6.20;99.90
23685;DHT22;12020;51.384;6.908;2023-12-22T06:31:28;6.20;99.90
23685;DHT22;12020;51.384;6.908;2023-12-22T06:33:54;6.20;99.90
23685;DHT22;12020;51.384;6.908;2023-12-22T06:36:21;6.30;99.90
23685;DHT22;12020;51.384;6.908;2023-12-22T06:38:53;6.20;99.90
23685;DHT22;12020;51.384;6.908;2023-12-22T06:41:44;6.30;99.90
23685;DHT22;12020;51.384;6.908;2023-12-22T06:44:35;6.40;99.90
23685;DHT22;12020;51.384;6.908;2023-12-22T06:47:01;6.40;99.90
23685;DHT22;12020;51.384;6.908;2023-12-22T06:49:45;6.40;99.90
23685;DHT22;12020;51.384;6.908;2023-12-22T06:52:26;6.50;99.90
23685;DHT22;12020;51.384;6.908;2023-12-22T06:55:00;6.50;99.90
23685;DHT22;12020;51.384;6.908;2023-12-22T06:57:25;6.50;99.90
23685;DHT22;12020;51.384;6.908;2023-12-22T07:03:05;6.60;99.90
23685;DHT22;12020;51.384;6.908;2023-12-22T07:05:34;6.60;99.90
23685;DHT22;12020;51.384;6.908;2023-12-22T07:08:01;6.60;99.90
23685;DHT22;12020;51.384;6.908;2023-12-22T07:10:28;6.60;99.90
23685;DHT22;12020;51.384;6.908;2023-12-22T07:12:54;6.60;99.90
23685;DHT22;12020;51.384;6.908;2023-12-22T07:15:20;6.70;99.90
23685;DHT22;12020;51.384;6.908;2023-12-22T07:17:46;6.60;99.90
23685;DHT22;12020;51.384;6.908;2023-12-22T07:20:12;6.60;99.90
23685;DHT22;12020;51.384;6.908;2023-12-22T07:22:39;6.70;99.90
23685;DHT22;12020;51.384;6.908;2023-12-22T07:25:05;6.70;99.90
23685;DHT22;12020;51.384;6.908;2023-12-22T07:27:32;6.80;99.90
23685;DHT22;12020;51.384;6.908;2023-12-22T07:30:00;6.80;99.90
23685;DHT22;12020;51.384;6.908;2023-12-22T07:32:26;6.80;99.90
23685;DHT22;12020;51.384;6.908;2023-12-22T07:34:52;6.90;99.90
23685;DHT22;12020;51.384;6.908;2023-12-22T07:37:21;6.90;99.90
23685;DHT22;12020;51.384;6.908;2023-12-22T07:39:50;7.00;99.90
23685;DHT22;12020;51.384;6.908;2023-12-22T07:42:16;7.00;99.90
23685;DHT22;12020;51.384;6.908;2023-12-22T07:44:42;7.10;99.90
23685;DHT22;12020;51.384;6.908;2023-12-22T07:47:09;7.10;99.90
23685;DHT22;12020;51.384;6.908;2023-12-22T07:49:36;7.20;99.90
23685;DHT22;12020;51.384;6.908;2023-12-22T07:52:01;7.20;99.90
23685;DHT22;12020;51.384;6.908;2023-12-22T07:54:27;7.30;99.90
23685;DHT22;12020;51.384;6.908;2023-12-22T07:56:53;7.30;99.90
23685;DHT22;12020;51.384;6.908;2023-12-22T07:59:19;7.30;99.90
23685;DHT22;12020;51.384;6.908;2023-12-22T08:01:45;7.30;99.90
23685;DHT22;12020;51.384;6.908;2023-12-22T08:04:10;7.30;99.90
23685;DHT22;12020;51.384;6.908;2023-12-22T08:06:37;7.40;99.90
23685;DHT22;12020;51.384;6.908;2023-12-22T08:09:03;7.40;99.90
23685;DHT22;12020;51.384;6.908;2023-12-22T08:11:29;7.40;99.90
23685;DHT22;12020;51.384;6.908;2023-12-22T08:13:55;7.40;99.90
23685;DHT22;12020;51.384;6.908;2023-12-22T08:16:20;7.50;99.90
23685;DHT22;12020;51.384;6.908;2023-12-22T08:18:46;7.50;99.90
23685;DHT22;12020;51.384;6.908;2023-12-22T08:21:13;7.50;99.90
23685;DHT22;12020;51.384;6.908;2023-12-22T08:23:39;7.50;99.90
23685;DHT22;12020;51.384;6.908;2023-12-22T08:26:05;7.60;99.90
23685;DHT22;12020;51.384;6.908;2023-12-22T08:28:31;7.60;99.90
23685;DHT22;12020;51.384;6.908;2023-12-22T08:30:57;7.60;99.90
23685;DHT22;12020;51.384;6.908;2023-12-22T08:33:23;7.70;99.90
23685;DHT22;12020;51.384;6.908;2023-12-22T08:35:49;7.70;99.90
23685;DHT22;12020;51.384;6.908;2023-12-22T08:38:14;7.80;99.90
23685;DHT22;12020;51.384;6.908;2023-12-22T08:40:40;7.70;99.90
23685;DHT22;12020;51.384;6.908;2023-12-22T08:43:06;7.80;99.90
23685;DHT22;12020;51.384;6.908;2023-12-22T08:45:32;7.80;99.90
23685;DHT22;12020;51.384;6.908;2023-12-22T08:47:58;7.80;99.90
23685;DHT22;12020;51.384;6.908;2023-12-22T08:50:24;7.90;99.90
23685;DHT22;12020;51.384;6.908;2023-12-22T08:52:50;7.90;99.90
23685;DHT22;12020;51.384;6.908;2023-12-22T08:55:16;7.90;99.90
23685;DHT22;12020;51.384;6.908;2023-12-22T08:57:42;8.00;99.90
23685;DHT22;12020;51.384;6.908;2023-12-22T09:00:08;8.00;99.90
23685;DHT22;12020;51.384;6.908;2023-12-22T09:02:34;8.00;99.90
23685;DHT22;12020;51.384;6.908;2023-12-22T09:05:00;8.10;99.90
23685;DHT22;12020;51.384;6.908;2023-12-22T09:07:26;8.10;99.90
23685;DHT22;12020;51.384;6.908;2023-12-22T09:09:53;8.10;99.90
23685;DHT22;12020;51.384;6.908;2023-12-22T09:12:18;8.20;99.90
23685;DHT22;12020;51.384;6.908;2023-12-22T09:14:45;8.10;99.90
23685;DHT22;12020;51.384;6.908;2023-12-22T09:17:11;8.20;99.90
23685;DHT22;12020;51.384;6.908;2023-12-22T09:19:36;8.20;99.90
23685;DHT22;12020;51.384;6.908;2023-12-22T09:22:04;8.20;99.90
23685;DHT22;12020;51.384;6.908;2023-12-22T09:24:30;8.30;99.90
23685;DHT22;12020;51.384;6.908;2023-12-22T09:26:56;8.30;99.90
23685;DHT22;12020;51.384;6.908;2023-12-22T09:29:30;8.30;99.90
23685;DHT22;12020;51.384;6.908;2023-12-22T09:32:14;8.30;99.90
23685;DHT22;12020;51.384;6.908;2023-12-22T09:34:40;8.30;99.90
23685;DHT22;12020;51.384;6.908;2023-12-22T09:37:06;8.30;99.90
23685;DHT22;12020;51.384;6.908;2023-12-22T09:39:32;8.30;99.90
23685;DHT22;12020;51.384;6.908;2023-12-22T09:41:58;8.30;99.90
23685;DHT22;12020;51.384;6.908;2023-12-22T09:44:24;8.40;99.90
23685;DHT22;12020;51.384;6.908;2023-12-22T09:46:52;8.40;99.90
23685;DHT22;12020;51.384;6.908;2023-12-22T09:49:21;8.30;99.90
23685;DHT22;12020;51.384;6.908;2023-12-22T09:51:49;8.40;99.90
23685;DHT22;12020;51.384;6.908;2023-12-22T09:54:16;8.40;99.90
23685;DHT22;12020;51.384;6.908;2023-12-22T09:56:43;8.40;99.90
23685;DHT22;12020;51.384;6.908;2023-12-22T09:59:14;8.40;99.90
23685;DHT22;12020;51.384;6.908;2023-12-22T10:01:43;8.30;99.90
23685;DHT22;12020;51.384;6.908;2023-12-22T10:04:13;8.40;99.90
23685;DHT22;12020;51.384;6.908;2023-12-22T10:06:38;8.40;99.90
23685;DHT22;12020;51.384;6.908;2023-12-22T10:09:08;8.40;99.90
23685;DHT22;12020;51.384;6.908;2023-12-22T10:11:35;8.40;99.90
23685;DHT22;12020;51.384;6.908;2023-12-22T10:14:22;8.40;99.90
23685;DHT22;12020;51.384;6.908;2023-12-22T10:16:52;8.40;99.90
23685;DHT22;12020;51.384;6.908;2023-12-22T10:19:19;8.40;99.90
23685;DHT22;12020;51.384;6.908;2023-12-22T10:21:50;8.50;99.90
23685;DHT22;12020;51.384;6.908;2023-12-22T10:24:39;8.50;99.90
23685;DHT22;12020;51.384;6.908;2023-12-22T10:27:05;8.50;99.90
23685;DHT22;12020;51.384;6.908;2023-12-22T10:29:31;8.60;99.90
23685;DHT22;12020;51.384;6.908;2023-12-22T10:32:01;8.60;99.90
23685;DHT22;12020;51.384;6.908;2023-12-22T10:34:28;8.60;99.90
23685;DHT22;12020;51.384;6.908;2023-12-22T10:36:54;8.70;99.90
23685;DHT22;12020;51.384;6.908;2023-12-22T10:39:19;8.70;99.90
23685;DHT22;12020;51.384;6.908;2023-12-22T10:41:47;8.70;99.90
23685;DHT22;12020;51.384;6.908;2023-12-22T10:44:15;8.70;99.90
23685;DHT22;12020;51.384;6.908;2023-12-22T10:46:47;8.70;99.90
23685;DHT22;12020;51.384;6.908;2023-12-22T10:49:13;8.70;99.90
23685;DHT22;12020;51.384;6.908;2023-12-22T10:51:39;8.70;99.90
23685;DHT22;12020;51.384;6.908;2023-12-22T10:54:06;8.60;99.90
23685;DHT22;12020;51.384;6.908;2023-12-22T10:56:31;8.60;99.90
23685;DHT22;12020;51.384;6.908;2023-12-22T10:58:57;8.60;99.90
23685;DHT22;12020;51.384;6.908;2023-12-22T11:01:28;8.60;99.90
23685;DHT22;12020;51.384;6.908;2023-12-22T11:03:58;8.60;99.90
23685;DHT22;12020;51.384;6.908;2023-12-22T11:06:28;8.50;99.90
23685;DHT22;12020;51.384;6.908;2023-12-22T11:08:56;8.50;99.90
23685;DHT22;12020;51.384;6.908;2023-12-22T11:11:33;8.50;99.90
23685;DHT22;12020;51.384;6.908;2023-12-22T11:14:00;8.50;99.90
23685;DHT22;12020;51.384;6.908;2023-12-22T11:16:31;8.40;99.90
23685;DHT22;12020;51.384;6.908;2023-12-22T11:18:59;8.40;99.90
23685;DHT22;12020;51.384;6.908;2023-12-22T11:21:25;8.40;99.90
23685;DHT22;12020;51.384;6.908;2023-12-22T11:23:52;8.40;99.90
23685;DHT22;12020;51.384;6.908;2023-12-22T11:26:23;8.40;99.90
23685;DHT22;12020;51.384;6.908;2023-12-22T11:28:51;8.40;99.90
23685;DHT22;12020;51.384;6.908;2023-12-22T11:31:17;8.50;99.90
23685;DHT22;12020;51.384;6.908;2023-12-22T11:33:45;8.50;99.90
23685;DHT22;12020;51.384;6.908;2023-12-22T11:36:12;8.60;99.90
23685;DHT22;12020;51.384;6.908;2023-12-22T11:38:39;8.70;99.90
23685;DHT22;12020;51.384;6.908;2023-12-22T11:41:06;8.80;99.90
23685;DHT22;12020;51.384;6.908;2023-12-22T11:43:35;8.80;99.90
23685;DHT22;12020;51.384;6.908;2023-12-22T11:46:05;8.80;99.90
23685;DHT22;12020;51.384;6.908;2023-12-22T11:48:30;8.90;99.90
23685;DHT22;12020;51.384;6.908;2023-12-22T11:50:57;8.90;99.90
23685;DHT22;12020;51.384;6.908;2023-12-22T11:53:24;9.00;99.90
23685;DHT22;12020;51.384;6.908;2023-12-22T11:56:07;9.00;99.90
23685;DHT22;12020;51.384;6.908;2023-12-22T11:58:41;9.10;99.90
23685;DHT22;12020;51.384;6.908;2023-12-22T12:01:13;9.10;99.90
23685;DHT22;12020;51.384;6.908;2023-12-22T12:03:48;9.20;99.90
23685;DHT22;12020;51.384;6.908;2023-12-22T12:06:17;9.20;99.90
23685;DHT22;12020;51.384;6.908;2023-12-22T12:08:43;9.20;99.90
23685;DHT22;12020;51.384;6.908;2023-12-22T12:11:09;9.30;99.90
23685;DHT22;12020;51.384;6.908;2023-12-22T12:13:39;9.30;99.90
23685;DHT22;12020;51.384;6.908;2023-12-22T12:16:07;9.30;99.90
23685;DHT22;12020;51.384;6.908;2023-12-22T12:18:33;9.40;99.90
23685;DHT22;12020;51.384;6.908;2023-12-22T12:21:00;9.40;99.90
23685;DHT22;12020;51.384;6.908;2023-12-22T12:23:27;9.50;99.90
23685;DHT22;12020;51.384;6.908;2023-12-22T12:25:54;9.50;99.90
23685;DHT22;12020;51.384;6.908;2023-12-22T12:28:28;9.50;99.90
23685;DHT22;12020;51.384;6.908;2023-12-22T12:31:00;9.60;99.90
23685;DHT22;12020;51.384;6.908;2023-12-22T12:33:27;9.60;99.90
23685;DHT22;12020;51.384;6.908;2023-12-22T12:36:00;9.60;99.90
23685;DHT22;12020;51.384;6.908;2023-12-22T12:41:00;9.70;99.90
23685;DHT22;12020;51.384;6.908;2023-12-22T12:43:29;9.70;99.90
23685;DHT22;12020;51.384;6.908;2023-12-22T12:46:02;9.70;99.90
23685;DHT22;12020;51.384;6.908;2023-12-22T12:48:28;9.70;99.90
23685;DHT22;12020;51.384;6.908;2023-12-22T12:50:54;9.70;99.90
23685;DHT22;12020;51.384;6.908;2023-12-22T12:53:20;9.60;99.90
23685;DHT22;12020;51.384;6.908;2023-12-22T12:55:45;9.50;99.90
23685;DHT22;12020;51.384;6.908;2023-12-22T12:58:11;9.60;99.90
23685;DHT22;12020;51.384;6.908;2023-12-22T13:00:37;9.40;99.90
23685;DHT22;12020;51.384;6.908;2023-12-22T13:03:05;9.40;99.90
23685;DHT22;12020;51.384;6.908;2023-12-22T13:05:31;9.40;99.90
23685;DHT22;12020;51.384;6.908;2023-12-22T13:08:08;9.40;99.90
23685;DHT22;12020;51.384;6.908;2023-12-22T13:10:37;9.40;99.90
23685;DHT22;12020;51.384;6.908;2023-12-22T13:13:03;9.30;99.90
23685;DHT22;12020;51.384;6.908;2023-12-22T13:15:29;9.30;99.90
23685;DHT22;12020;51.384;6.908;2023-12-22T13:17:56;9.20;99.90
23685;DHT22;12020;51.384;6.908;2023-12-22T13:20:22;9.20;99.90
23685;DHT22;12020;51.384;6.908;2023-12-22T13:22:49;9.10;99.90
23685;DHT22;12020;51.384;6.908;2023-12-22T13:25:15;9.20;99.90
23685;DHT22;12020;51.384;6.908;2023-12-22T13:28:05;9.20;99.90
23685;DHT22;12020;51.384;6.908;2023-12-22T13:30:38;9.20;99.90
23685;DHT22;12020;51.384;6.908;2023-12-22T13:33:06;9.30;99.90
23685;DHT22;12020;51.384;6.908;2023-12-22T13:35:33;9.30;99.90
23685;DHT22;12020;51.384;6.908;2023-12-22T13:38:05;9.40;99.90
23685;DHT22;12020;51.384;6.908;2023-12-22T13:40:31;9.40;99.90
23685;DHT22;12020;51.384;6.908;2023-12-22T13:42:58;9.50;99.90
23685;DHT22;12020;51.384;6.908;2023-12-22T13:45:25;9.50;99.90
23685;DHT22;12020;51.384;6.908;2023-12-22T13:47:51;9.50;99.90
23685;DHT22;12020;51.384;6.908;2023-12-22T13:50:18;9.50;99.90
23685;DHT22;12020;51.384;6.908;2023-12-22T13:52:44;9.50;99.90
23685;DHT22;12020;51.384;6.908;2023-12-22T13:55:14;9.40;99.90
23685;DHT22;12020;51.384;6.908;2023-12-22T13:57:41;9.40;99.90
23685;DHT22;12020;51.384;6.908;2023-12-22T14:02:47;9.40;99.90
23685;DHT22;12020;51.384;6.908;2023-12-22T14:05:15;9.40;99.90
23685;DHT22;12020;51.384;6.908;2023-12-22T14:07:40;9.40;99.90
23685;DHT22;12020;51.384;6.908;2023-12-22T14:10:07;9.50;99.90
23685;DHT22;12020;51.384;6.908;2023-12-22T14:12:34;9.50;99.90
23685;DHT22;12020;51.384;6.908;2023-12-22T14:15:00;9.50;99.90
23685;DHT22;12020;51.384;6.908;2023-12-22T14:17:25;9.60;99.90
23685;DHT22;12020;51.384;6.908;2023-12-22T14:19:51;9.60;99.90
23685;DHT22;12020;51.384;6.908;2023-12-22T14:22:17;9.60;99.90
23685;DHT22;12020;51.384;6.908;2023-12-22T14:24:43;9.60;99.90
23685;DHT22;12020;51.384;6.908;2023-12-22T14:27:09;9.70;99.90
23685;DHT22;12020;51.384;6.908;2023-12-22T14:29:37;9.70;99.90
23685;DHT22;12020;51.384;6.908;2023-12-22T14:32:06;9.70;99.90
23685;DHT22;12020;51.384;6.908;2023-12-22T14:34:34;9.70;99.90
23685;DHT22;12020;51.384;6.908;2023-12-22T14:37:00;9.70;99.90
23685;DHT22;12020;51.384;6.908;2023-12-22T14:39:26;9.80;99.90
23685;DHT22;12020;51.384;6.908;2023-12-22T14:41:52;9.80;99.90
23685;DHT22;12020;51.384;6.908;2023-12-22T14:44:18;9.80;99.90
23685;DHT22;12020;51.384;6.908;2023-12-22T14:46:44;9.80;99.90
23685;DHT22;12020;51.384;6.908;2023-12-22T14:49:11;9.80;99.90
23685;DHT22;12020;51.384;6.908;2023-12-22T14:51:40;9.80;99.90
23685;DHT22;12020;51.384;6.908;2023-12-22T14:54:07;9.80;99.90
23685;DHT22;12020;51.384;6.908;2023-12-22T14:56:34;9.80;99.90
23685;DHT22;12020;51.384;6.908;2023-12-22T14:59:03;9.80;99.90
23685;DHT22;12020;51.384;6.908;2023-12-22T15:01:29;9.80;99.90
23685;DHT22;12020;51.384;6.908;2023-12-22T15:03:59;9.70;99.90
23685;DHT22;12020;51.384;6.908;2023-12-22T15:06:24;9.80;99.90
23685;DHT22;12020;51.384;6.908;2023-12-22T15:08:50;9.70;99.90
23685;DHT22;12020;51.384;6.908;2023-12-22T15:11:16;9.80;99.90
23685;DHT22;12020;51.384;6.908;2023-12-22T15:13:42;9.70;99.90
23685;DHT22;12020;51.384;6.908;2023-12-22T15:16:09;9.70;99.90
23685;DHT22;12020;51.384;6.908;2023-12-22T15:18:35;9.60;99.90
23685;DHT22;12020;51.384;6.908;2023-12-22T15:21:02;9.60;99.90
23685;DHT22;12020;51.384;6.908;2023-12-22T15:23:28;9.60;99.90
23685;DHT22;12020;51.384;6.908;2023-12-22T15:25:56;9.50;99.90
23685;DHT22;12020;51.384;6.908;2023-12-22T15:28:22;9.50;99.90
23685;DHT22;12020;51.384;6.908;2023-12-22T15:30:47;9.40;99.90
23685;DHT22;12020;51.384;6.908;2023-12-22T15:33:24;9.50;99.90
23685;DHT22;12020;51.384;6.908;2023-12-22T15:35:54;9.50;99.90
23685;DHT22;12020;51.384;6.908;2023-12-22T15:38:22;9.50;99.90
23685;DHT22;12020;51.384;6.908;2023-12-22T15:41:00;9.50;99.90
23685;DHT22;12020;51.384;6.908;2023-12-22T15:43:49;9.50;99.90
23685;DHT22;12020;51.384;6.908;2023-12-22T15:48:50;9.60;99.90
23685;DHT22;12020;51.384;6.908;2023-12-22T15:51:20;9.60;99.90
23685;DHT22;12020;51.384;6.908;2023-12-22T15:53:48;9.60;99.90
23685;DHT22;12020;51.384;6.908;2023-12-22T15:56:16;9.60;99.90
23685;DHT22;12020;51.384;6.908;2023-12-22T15:58:45;9.70;99.90
23685;DHT22;12020;51.384;6.908;2023-12-22T16:01:12;9.70;99.90
23685;DHT22;12020;51.384;6.908;2023-12-22T16:03:41;9.70;99.90
23685;DHT22;12020;51.384;6.908;2023-12-22T16:06:09;9.70;99.90
23685;DHT22;12020;51.384;6.908;2023-12-22T16:08:39;9.70;99.90
23685;DHT22;12020;51.384;6.908;2023-12-22T16:11:26;9.70;99.90
23685;DHT22;12020;51.384;6.908;2023-12-22T16:13:59;9.70;99.90
23685;DHT22;12020;51.384;6.908;2023-12-22T16:16:25;9.70;99.90
23685;DHT22;12020;51.384;6.908;2023-12-22T16:18:53;9.70;99.90
23685;DHT22;12020;51.384;6.908;2023-12-22T16:21:19;9.70;99.90
23685;DHT22;12020;51.384;6.908;2023-12-22T16:23:45;9.70;99.90
23685;DHT22;12020;51.384;6.908;2023-12-22T16:26:19;9.70;99.90
23685;DHT22;12020;51.384;6.908;2023-12-22T16:29:05;9.70;99.90
23685;DHT22;12020;51.384;6.908;2023-12-22T16:31:35;9.70;99.90
23685;DHT22;12020;51.384;6.908;2023-12-22T16:34:42;9.80;99.90
23685;DHT22;12020;51.384;6.908;2023-12-22T16:37:29;9.70;99.90
23685;DHT22;12020;51.384;6.908;2023-12-22T16:39:57;9.70;99.90
23685;DHT22;12020;51.384;6.908;2023-12-22T16:42:28;9.80;99.90
23685;DHT22;12020;51.384;6.908;2023-12-22T16:44:56;9.80;99.90
23685;DHT22;12020;51.384;6.908;2023-12-22T16:47:23;9.80;99.90